Bookmark and Share
Track history (hours):
 

Sankoushin

Last reported at 2014-Apr-25 04:33 UTC. Time now 2014-Apr-25 06:23 UTC.
Position N 35°37' E 139°48'.

Length 71 m; draft 4.2 m.

Type: Cargo ship. MMSI: 431000269.

NotesDate/timePositionNaut miles runAvg speedWind from/ knotsBaromVisibWave heightAir tempDewpointWater temp
2014-Apr-25 04:33N 35°37' E 139°48'0 0.0
2014-Apr-25 03:33N 35°37' E 139°48'0 0.0
2014-Apr-25 02:33N 35°37' E 139°48'0 0.0
2014-Apr-25 01:15N 35°37' E 139°48'0 0.1
2014-Apr-25 00:30N 35°37' E 139°48'0 0.0
2014-Apr-24 23:30N 35°37' E 139°48'0 0.0
2014-Apr-24 22:27N 35°37' E 139°48'0 0.0
2014-Apr-24 21:30N 35°37' E 139°48'0 0.0
2014-Apr-24 20:33N 35°37' E 139°48'0 0.0
2014-Apr-24 19:27N 35°37' E 139°48'0 0.0
2014-Apr-24 18:33N 35°37' E 139°48'0 0.0
2014-Apr-24 17:30N 35°37' E 139°48'0 0.0
2014-Apr-24 16:33N 35°37' E 139°48'0 0.0
2014-Apr-24 15:30N 35°37' E 139°48'0 0.0
2014-Apr-24 14:33N 35°37' E 139°48'0 0.0
2014-Apr-24 13:33N 35°37' E 139°48'0 0.0
2014-Apr-24 12:27N 35°37' E 139°48'0 0.0
2014-Apr-24 11:33N 35°37' E 139°48'0 0.0
2014-Apr-24 10:30N 35°37' E 139°48'0 0.0
2014-Apr-24 09:27N 35°37' E 139°48'0 0.0
2014-Apr-24 08:27N 35°37' E 139°48'0 0.0
2014-Apr-24 07:30N 35°37' E 139°48'0 0.0
2014-Apr-24 06:27N 35°37' E 139°48'0 0.0
2014-Apr-24 05:33N 35°37' E 139°48'0 0.0
2014-Apr-24 04:21N 35°37' E 139°48'0 0.0
2014-Apr-24 03:33N 35°37' E 139°48'0 0.0
2014-Apr-24 02:33N 35°37' E 139°48'0 0.0
2014-Apr-24 01:33N 35°37' E 139°48'0 0.0
2014-Apr-24 00:27N 35°37' E 139°48'0 0.0
2014-Apr-23 23:27N 35°37' E 139°48'2 2.3
2014-Apr-23 22:33N 35°36' E 139°50'2 2.3
2014-Apr-23 21:33N 35°35' E 139°52'0 0.0
2014-Apr-23 20:33N 35°35' E 139°52'0 0.0
2014-Apr-23 19:33N 35°35' E 139°52'0 0.0
2014-Apr-23 18:33N 35°35' E 139°52'0 0.1
2014-Apr-23 17:33N 35°35' E 139°52'0 0.1
2014-Apr-23 16:33N 35°35' E 139°52'5 5.1
2014-Apr-23 15:33N 35°30' E 139°52'1211.7
2014-Apr-23 14:33N 35°20' E 139°44'1111.4
2014-Apr-23 13:33N 35°09' E 139°47'1211.6
2014-Apr-23 12:33N 35°00' E 139°37'23310.0
2014-Apr-22 13:13N 34°05' E 135°02'912.5
2014-Apr-22 12:32N 34°14' E 135°02'1212.3
2014-Apr-22 11:33N 34°25' E 135°09'1312.7
2014-Apr-22 10:33N 34°34' E 135°20'6 6.1
2014-Apr-22 09:33N 34°34' E 135°27'0 0.0
2014-Apr-22 08:23N 34°34' E 135°27'0 0.0
2014-Apr-21 20:29N 34°34' E 135°27'0 0.0
2014-Apr-21 15:05N 34°34' E 135°27'0 0.0
2014-Apr-21 06:29N 34°34' E 135°27'0 0.0
2014-Apr-20 22:17N 34°34' E 135°27'0 0.0
2014-Apr-20 21:30N 34°34' E 135°27'2 1.7
2014-Apr-20 20:33N 34°35' E 135°26'1110.5
2014-Apr-20 19:33N 34°30' E 135°15'1211.9
2014-Apr-20 18:32N 34°21' E 135°06'6 5.8
2014-Apr-20 17:28N 34°14' E 135°07'0 0.0
2014-Apr-20 16:31N 34°15' E 135°07'0 0.0
2014-Apr-20 15:28N 34°15' E 135°07'0 0.1
2014-Apr-20 14:22N 34°14' E 135°07'0 0.1
2014-Apr-20 13:28N 34°15' E 135°07'0 0.0
2014-Apr-20 12:31N 34°15' E 135°07'0 0.0
2014-Apr-20 11:31N 34°15' E 135°07'0 0.1
2014-Apr-20 10:33N 34°15' E 135°07'0 0.0
2014-Apr-20 09:33N 34°15' E 135°07'1 0.5
2014-Apr-20 08:33N 34°15' E 135°06'2 1.8
2014-Apr-20 07:32N 34°15' E 135°04'1212.3
2014-Apr-20 06:33N 34°27' E 135°04'1110.5
2014-Apr-20 05:27N 34°36' E 134°56'1 0.1
2014-Apr-19 11:32N 34°37' E 134°55'9 9.6
2014-Apr-19 10:33N 34°33' E 135°05'1411.3
2014-Apr-19 09:19N 34°19' E 135°04'911.3
2014-Apr-19 08:33N 34°10' E 135°03'  
2014-Apr-16 21:33N 34°04' E 135°03'1110.7
2014-Apr-16 20:33N 34°15' E 135°07'0 0.1
2014-Apr-16 19:32N 34°15' E 135°07'0 0.0
2014-Apr-16 18:26N 34°15' E 135°07'0 0.0
2014-Apr-16 17:32N 34°15' E 135°07'0 0.0
2014-Apr-16 16:32N 34°15' E 135°07'0 0.0
2014-Apr-16 15:32N 34°15' E 135°07'0 0.0
2014-Apr-16 12:29N 34°15' E 135°07'0 0.0
2014-Apr-16 11:29N 34°15' E 135°07'0 0.0
2014-Apr-16 10:29N 34°15' E 135°07'2 2.0
2014-Apr-16 09:32N 34°14' E 135°05'5 4.9
2014-Apr-16 08:33N 34°10' E 135°08'226 8.4
2014-Apr-15 05:32N 34°51' E 139°38'  

Dump ship's entire track history

sailing weather and tide predictions

Sankoushin — JD2465 — position and weather